Time;durP1;ratioP1;P1;durP2;ratioP2;P2;SDS_P1;SDS_P2;PMS_P1;PMS_P2;Temp;Humidity;BMP_temperature;BMP_pressure;BME280_temperature;BME280_humidity;BME280_pressure;Samples;Min_cycle;Max_cycle;Signal;HPM_P1;HPM_P2
2021/09/30 00:00:08;;;;;;;1.70;1.60;;;22.20;64.80;;;;;;5061172;28;20037;-36
2021/09/30 00:02:34;;;;;;;1.75;1.65;;;22.30;64.90;;;;;;5061028;28;20028;-36
2021/09/30 00:05:01;;;;;;;1.40;1.30;;;22.30;64.90;;;;;;5064081;28;20033;-38
2021/09/30 00:07:27;;;;;;;1.42;1.33;;;22.30;64.90;;;;;;5122745;28;20024;-36
2021/09/30 00:09:53;;;;;;;1.70;1.60;;;22.30;64.90;;;;;;5124127;28;20043;-36
2021/09/30 00:12:32;;;;;;;1.80;1.70;;;22.30;65.00;;;;;;5123728;28;20027;-36
2021/09/30 00:15:06;;;;;;;1.75;1.65;;;22.30;65.20;;;;;;5124386;28;20103;-36
2021/09/30 00:34:16;;;;;;;1.75;1.65;;;22.40;65.70;;;;;;5144366;27;20042;-36
2021/09/30 00:45:24;;;;;;;1.73;1.63;;;22.40;65.60;;;;;;5103323;28;20035;-36
2021/09/30 00:45:42;;;;;;;2.30;2.10;;;22.40;65.40;;;;;;5103207;28;20044;-36
2021/09/30 00:48:31;;;;;;;2.08;1.73;;;22.40;65.40;;;;;;5101811;28;20035;-36
2021/09/30 01:30:03;;;;;;;2.13;1.95;;;22.50;66.10;;;;;;5028099;28;20068;-36
2021/09/30 01:34:04;;;;;;;2.28;2.08;;;22.50;66.10;;;;;;5011864;28;20088;-36
2021/09/30 01:58:49;;;;;;;2.60;2.40;;;22.50;67.40;;;;;;5122494;28;20058;-36
2021/09/30 02:20:44;;;;;;;3.38;2.85;;;22.50;67.20;;;;;;5122479;28;20054;-36
2021/09/30 02:26:00;;;;;;;3.05;2.85;;;22.50;67.50;;;;;;5087422;28;20031;-36
2021/09/30 02:58:34;;;;;;;3.92;3.00;;;22.50;67.00;;;;;;5095580;28;20042;-37
2021/09/30 03:01:16;;;;;;;3.10;2.90;;;22.50;67.00;;;;;;5086905;28;20028;-36
2021/09/30 03:03:42;;;;;;;3.10;2.80;;;22.50;66.90;;;;;;5107250;28;20066;-36
2021/09/30 03:06:08;;;;;;;2.85;2.65;;;22.50;67.00;;;;;;5090282;28;20519;-36
2021/09/30 03:08:42;;;;;;;3.47;2.95;;;22.50;67.00;;;;;;5125388;28;20032;-36
2021/09/30 03:11:08;;;;;;;3.22;2.97;;;22.40;66.90;;;;;;5108295;28;20034;-36
2021/09/30 03:13:34;;;;;;;3.42;3.13;;;22.40;66.80;;;;;;5090504;28;20035;-37
2021/09/30 03:16:06;;;;;;;3.30;3.10;;;22.40;66.90;;;;;;5106985;28;20049;-36
2021/09/30 03:23:28;;;;;;;3.60;3.30;;;22.40;66.90;;;;;;5106981;28;20046;-36
2021/09/30 03:25:54;;;;;;;3.28;2.97;;;22.40;66.70;;;;;;5098496;28;20107;-36
2021/09/30 03:28:23;;;;;;;3.78;3.28;;;22.40;66.60;;;;;;5069642;28;20496;-37
2021/09/30 03:30:49;;;;;;;3.10;2.90;;;22.40;66.50;;;;;;5086326;28;20047;-36
2021/09/30 03:33:15;;;;;;;3.67;3.00;;;22.40;66.40;;;;;;5087335;28;20012;-36
2021/09/30 03:35:41;;;;;;;3.35;3.00;;;22.40;66.40;;;;;;5106554;28;20035;-36
2021/09/30 03:38:08;;;;;;;3.03;2.83;;;22.40;66.30;;;;;;5106215;28;20020;-36
2021/09/30 03:40:35;;;;;;;2.90;2.70;;;22.40;66.30;;;;;;5106393;28;20030;-37
2021/09/30 03:43:01;;;;;;;3.20;3.00;;;22.40;66.40;;;;;;5124838;28;20032;-36
2021/09/30 03:45:28;;;;;;;3.63;3.30;;;22.40;66.40;;;;;;5124450;28;20054;-36
2021/09/30 03:47:54;;;;;;;3.25;3.05;;;22.30;66.40;;;;;;5124230;28;20035;-36
2021/09/30 03:50:26;;;;;;;3.25;2.97;;;22.30;66.30;;;;;;5124502;28;20038;-36
2021/09/30 03:52:59;;;;;;;3.60;3.30;;;22.30;66.40;;;;;;5124378;28;20054;-36
2021/09/30 03:55:35;;;;;;;3.78;3.40;;;22.30;66.30;;;;;;5124335;28;20039;-36
2021/09/30 04:00:38;;;;;;;3.70;3.40;;;22.30;66.30;;;;;;5124266;28;20034;-36
2021/09/30 04:03:04;;;;;;;3.47;3.17;;;22.30;66.40;;;;;;5124315;28;20081;-36
2021/09/30 04:05:30;;;;;;;3.78;3.45;;;22.30;66.30;;;;;;5104350;28;20036;-36
2021/09/30 04:07:57;;;;;;;3.60;3.30;;;22.30;66.30;;;;;;5118171;28;20078;-37
2021/09/30 04:10:23;;;;;;;3.65;3.35;;;22.30;66.30;;;;;;5124143;28;20059;-36
2021/09/30 04:12:49;;;;;;;3.47;3.17;;;22.30;66.30;;;;;;5124304;28;20046;-36
2021/09/30 04:15:15;;;;;;;3.63;3.33;;;22.20;66.20;;;;;;5122404;28;20034;-36
2021/09/30 04:17:41;;;;;;;4.18;3.83;;;22.30;66.30;;;;;;5123963;28;20030;-36
2021/09/30 04:20:08;;;;;;;3.90;3.60;;;22.20;66.30;;;;;;5123846;28;20123;-37
2021/09/30 04:22:34;;;;;;;3.55;3.25;;;22.20;66.40;;;;;;5124067;28;20051;-36
2021/09/30 04:25:00;;;;;;;3.70;3.40;;;22.20;66.40;;;;;;5122895;28;20061;-36
2021/09/30 04:27:26;;;;;;;3.78;3.40;;;22.20;66.40;;;;;;5123763;28;20028;-36
2021/09/30 04:29:52;;;;;;;3.78;3.47;;;22.20;66.40;;;;;;5123504;28;20034;-36
2021/09/30 04:32:18;;;;;;;4.00;3.60;;;22.20;66.40;;;;;;5123962;28;20015;-36
2021/09/30 04:34:44;;;;;;;3.28;3.08;;;22.20;66.40;;;;;;5123551;28;20038;-37
2021/09/30 04:37:12;;;;;;;3.85;3.55;;;22.20;66.50;;;;;;5123727;28;20115;-36
2021/09/30 04:39:39;;;;;;;3.45;3.15;;;22.20;66.40;;;;;;5123534;28;20079;-36
2021/09/30 04:42:05;;;;;;;3.72;3.35;;;22.10;66.50;;;;;;5123716;28;20023;-37
2021/09/30 04:44:31;;;;;;;3.95;3.65;;;22.10;66.50;;;;;;5123606;28;20095;-36
2021/09/30 04:46:57;;;;;;;3.63;3.33;;;22.10;66.50;;;;;;5123702;28;20016;-36
2021/09/30 04:49:23;;;;;;;3.55;3.25;;;22.10;66.50;;;;;;5123027;28;20557;-36
2021/09/30 04:51:49;;;;;;;3.75;3.38;;;22.10;66.50;;;;;;5123510;28;20169;-36
2021/09/30 04:54:15;;;;;;;4.10;3.58;;;22.10;66.50;;;;;;5123358;28;20043;-36
2021/09/30 04:56:41;;;;;;;3.90;3.60;;;22.10;66.60;;;;;;5123349;28;20035;-36
2021/09/30 04:59:08;;;;;;;3.75;3.42;;;22.10;66.60;;;;;;5109524;28;20091;-36
2021/09/30 05:01:34;;;;;;;4.28;3.88;;;22.10;66.60;;;;;;5102799;28;20123;-36
2021/09/30 05:04:00;;;;;;;3.70;3.40;;;22.10;66.60;;;;;;5109733;28;20044;-36
2021/09/30 05:06:26;;;;;;;4.22;3.92;;;22.10;66.70;;;;;;5123215;28;20019;-36
2021/09/30 05:08:57;;;;;;;5.05;3.95;;;22.10;66.70;;;;;;5123201;28;20028;-37
2021/09/30 05:11:24;;;;;;;4.00;3.60;;;22.10;66.70;;;;;;5122826;28;20128;-36
2021/09/30 05:13:54;;;;;;;3.92;3.60;;;22.10;66.80;;;;;;5123071;28;20054;-36
2021/09/30 05:16:20;;;;;;;4.07;3.78;;;22.00;66.80;;;;;;5123231;28;20030;-36
2021/09/30 05:18:51;;;;;;;4.53;3.75;;;22.00;66.80;;;;;;5123052;28;20051;-37
2021/09/30 05:21:18;;;;;;;4.28;3.88;;;22.00;66.80;;;;;;5122876;28;20034;-36
2021/09/30 05:23:44;;;;;;;4.22;3.85;;;22.00;66.80;;;;;;5123114;28;20039;-37
2021/09/30 05:26:10;;;;;;;3.65;3.35;;;22.00;66.80;;;;;;5122937;28;20032;-36
2021/09/30 05:28:36;;;;;;;4.18;3.88;;;22.00;66.90;;;;;;5123175;28;20031;-36
2021/09/30 05:31:03;;;;;;;3.80;3.50;;;22.00;66.90;;;;;;5122815;28;20092;-36
2021/09/30 05:33:29;;;;;;;3.95;3.47;;;22.00;66.90;;;;;;5122951;28;20028;-36
2021/09/30 05:35:57;;;;;;;3.72;3.50;;;22.00;66.90;;;;;;5122969;28;20419;-36
2021/09/30 05:38:23;;;;;;;4.35;3.97;;;22.00;67.00;;;;;;5122898;28;20059;-36
2021/09/30 05:40:50;;;;;;;3.90;3.60;;;21.90;66.90;;;;;;5122621;28;20034;-36
2021/09/30 05:43:26;;;;;;;3.72;3.42;;;22.00;67.00;;;;;;5122838;28;20042;-36
2021/09/30 05:45:55;;;;;;;4.10;3.70;;;22.00;67.10;;;;;;5106044;28;20040;-36
2021/09/30 05:48:22;;;;;;;3.85;3.50;;;21.90;67.00;;;;;;5123007;28;20570;-36
2021/09/30 05:50:48;;;;;;;4.30;3.50;;;21.90;67.10;;;;;;5122546;28;20030;-36
2021/09/30 05:53:15;;;;;;;4.00;3.60;;;21.90;67.10;;;;;;5122759;28;20062;-36
2021/09/30 05:55:41;;;;;;;3.85;3.55;;;21.90;67.10;;;;;;5122483;28;20027;-36
2021/09/30 05:58:07;;;;;;;3.88;3.55;;;21.90;67.10;;;;;;5122800;28;20032;-36
2021/09/30 06:00:50;;;;;;;4.15;3.80;;;21.90;67.20;;;;;;5121552;28;20112;-36
2021/09/30 06:14:33;;;;;;;4.43;3.60;;;21.80;67.30;;;;;;5043126;28;20514;-36
2021/09/30 06:17:01;;;;;;;4.63;4.22;;;21.80;67.30;;;;;;5043022;28;20073;-36
2021/09/30 06:19:26;;;;;;;;;;;21.80;67.30;;;;;;5043570;28;20040;-36
2021/09/30 06:21:53;;;;;;;3.80;3.50;;;21.80;67.30;;;;;;5042861;28;19936;-36
2021/09/30 06:24:21;;;;;;;4.10;3.70;;;21.80;67.40;;;;;;5042403;28;20072;-36
2021/09/30 06:26:48;;;;;;;4.30;3.75;;;21.80;67.40;;;;;;5042853;28;20048;-36
2021/09/30 06:29:14;;;;;;;4.50;4.10;;;21.80;67.40;;;;;;5042830;28;20033;-36
2021/09/30 06:31:40;;;;;;;4.10;3.70;;;21.80;67.50;;;;;;5042600;28;20530;-36
2021/09/30 06:34:06;;;;;;;4.05;3.65;;;21.80;67.50;;;;;;5050473;28;20031;-36
2021/09/30 06:36:33;;;;;;;4.65;3.67;;;21.80;67.50;;;;;;5062573;28;20060;-36
2021/09/30 06:38:59;;;;;;;4.10;3.70;;;21.70;67.40;;;;;;5062529;28;20045;-36
2021/09/30 06:41:25;;;;;;;3.70;3.40;;;21.70;67.50;;;;;;5062085;28;20262;-36
2021/09/30 06:43:51;;;;;;;4.57;3.78;;;21.70;67.50;;;;;;5062440;28;20041;-36
2021/09/30 06:46:18;;;;;;;3.90;3.50;;;21.70;67.60;;;;;;5062501;28;20017;-36
2021/09/30 06:48:44;;;;;;;4.40;4.00;;;21.70;67.60;;;;;;5062537;28;20068;-36
2021/09/30 06:51:10;;;;;;;4.40;4.00;;;21.70;67.60;;;;;;5101925;28;20043;-36
2021/09/30 06:53:36;;;;;;;4.18;3.88;;;21.70;67.60;;;;;;5105166;28;20051;-36
2021/09/30 06:56:06;;;;;;;4.32;3.92;;;21.70;67.60;;;;;;5115114;28;20674;-37
2021/09/30 06:58:32;;;;;;;4.10;3.70;;;21.70;67.60;;;;;;5108210;28;20053;-36
2021/09/30 07:00:58;;;;;;;3.90;3.60;;;21.70;67.60;;;;;;5120737;28;20016;-37
2021/09/30 07:03:25;;;;;;;3.90;3.60;;;21.70;67.60;;;;;;5107195;28;20028;-36
2021/09/30 07:05:51;;;;;;;4.65;4.20;;;21.70;67.70;;;;;;5107088;28;20108;-36
2021/09/30 07:08:17;;;;;;;3.90;3.50;;;21.60;67.70;;;;;;5125528;28;20509;-36
2021/09/30 07:10:44;;;;;;;4.30;3.90;;;21.60;67.70;;;;;;5125271;28;20108;-36
2021/09/30 07:13:10;;;;;;;4.40;3.80;;;21.60;67.80;;;;;;5125079;28;20034;-36
2021/09/30 07:15:36;;;;;;;3.92;3.63;;;21.60;67.80;;;;;;5125522;28;20279;-36
2021/09/30 07:18:19;;;;;;;3.87;3.57;;;21.70;67.90;;;;;;5125331;28;20020;-36
2021/09/30 07:21:01;;;;;;;4.50;4.10;;;21.60;67.80;;;;;;5124247;28;20026;-36
2021/09/30 07:23:28;;;;;;;4.30;3.90;;;21.60;67.80;;;;;;5124918;28;20035;-36
2021/09/30 07:25:54;;;;;;;4.18;3.85;;;21.60;67.90;;;;;;5125225;28;20031;-36
2021/09/30 07:28:20;;;;;;;3.70;3.38;;;21.60;67.90;;;;;;5125194;28;20028;-36
2021/09/30 07:30:47;;;;;;;3.80;3.50;;;21.60;67.90;;;;;;5125247;28;20039;-36
2021/09/30 07:33:14;;;;;;;4.25;3.90;;;21.60;68.00;;;;;;5124666;28;20027;-36
2021/09/30 07:35:40;;;;;;;3.90;3.60;;;21.50;67.90;;;;;;5124759;28;20028;-36
2021/09/30 07:38:06;;;;;;;3.63;3.33;;;21.50;68.00;;;;;;5124738;28;20057;-36
2021/09/30 07:40:32;;;;;;;4.60;4.20;;;21.60;68.10;;;;;;5125042;28;20020;-36
2021/09/30 07:42:59;;;;;;;3.90;3.60;;;21.50;68.00;;;;;;5124617;28;20152;-36
2021/09/30 07:45:25;;;;;;;4.03;3.67;;;21.50;68.10;;;;;;5124764;28;20059;-36
2021/09/30 07:47:51;;;;;;;4.50;4.10;;;21.50;68.20;;;;;;5124858;28;20032;-36
2021/09/30 07:50:17;;;;;;;4.13;3.72;;;21.50;68.80;;;;;;5124426;28;20027;-36
2021/09/30 07:52:44;;;;;;;3.93;3.63;;;21.50;68.10;;;;;;5124051;28;20075;-36
2021/09/30 07:55:11;;;;;;;4.25;3.88;;;21.50;68.10;;;;;;5124473;28;20032;-36
2021/09/30 07:57:37;;;;;;;4.10;3.80;;;21.50;68.20;;;;;;5124435;28;20028;-37
2021/09/30 08:00:07;;;;;;;4.77;4.30;;;21.50;68.20;;;;;;5124533;28;20042;-36
2021/09/30 08:02:33;;;;;;;4.82;4.18;;;21.50;68.30;;;;;;5124025;28;20024;-36
2021/09/30 08:04:59;;;;;;;4.70;3.92;;;21.40;68.20;;;;;;5108844;28;20079;-36
2021/09/30 08:07:25;;;;;;;4.40;4.00;;;21.50;68.30;;;;;;5116943;28;20034;-36
2021/09/30 08:09:51;;;;;;;4.45;4.05;;;21.40;68.30;;;;;;5124197;28;20031;-36
2021/09/30 08:12:17;;;;;;;4.25;3.85;;;21.40;68.30;;;;;;5124046;28;20043;-36
2021/09/30 08:14:44;;;;;;;4.50;4.10;;;21.40;68.30;;;;;;5124236;28;20031;-37
2021/09/30 08:17:10;;;;;;;4.15;3.85;;;21.40;68.30;;;;;;5112754;28;20027;-36
2021/09/30 08:19:36;;;;;;;4.05;3.75;;;21.40;68.40;;;;;;5085352;28;20038;-36
2021/09/30 08:22:02;;;;;;;4.00;3.70;;;21.40;68.40;;;;;;5103868;28;20648;-36
2021/09/30 08:24:28;;;;;;;3.58;3.28;;;21.40;68.40;;;;;;5103515;28;20035;-36
2021/09/30 08:26:55;;;;;;;3.95;3.55;;;21.40;68.40;;;;;;5120769;28;20028;-36
2021/09/30 08:29:21;;;;;;;4.25;3.95;;;21.40;68.50;;;;;;5123899;28;20038;-36
2021/09/30 08:31:47;;;;;;;4.07;3.67;;;21.30;68.50;;;;;;5123794;28;20016;-36
2021/09/30 08:34:13;;;;;;;4.43;4.03;;;21.40;68.60;;;;;;5123434;28;20059;-36
2021/09/30 08:36:40;;;;;;;4.00;3.70;;;21.40;68.60;;;;;;5123571;28;20423;-36
2021/09/30 08:39:06;;;;;;;4.40;3.60;;;21.30;68.50;;;;;;5123808;28;20027;-36
2021/09/30 08:41:33;;;;;;;4.32;3.92;;;21.30;68.60;;;;;;5123542;28;20113;-36
2021/09/30 08:43:59;;;;;;;4.88;4.38;;;21.30;68.60;;;;;;5105265;28;20096;-36
2021/09/30 08:46:25;;;;;;;4.32;3.95;;;21.30;69.40;;;;;;5123640;28;20019;-36
2021/09/30 08:48:52;;;;;;;4.15;3.80;;;21.30;68.60;;;;;;5123434;28;20028;-36
2021/09/30 08:51:18;;;;;;;4.70;4.30;;;21.30;68.70;;;;;;5123445;28;20072;-36
2021/09/30 08:53:44;;;;;;;4.53;4.13;;;21.30;68.70;;;;;;5123034;28;20038;-36
2021/09/30 08:56:10;;;;;;;4.60;4.10;;;21.30;68.70;;;;;;5120722;28;20034;-36
2021/09/30 08:58:37;;;;;;;4.68;4.18;;;21.30;68.80;;;;;;5123400;28;20024;-36
2021/09/30 09:01:04;;;;;;;4.35;3.95;;;21.30;68.80;;;;;;5105127;28;20038;-36
2021/09/30 09:03:38;;;;;;;4.20;3.80;;;21.30;68.80;;;;;;5123177;28;20036;-36
2021/09/30 09:06:05;;;;;;;4.50;4.10;;;21.20;68.80;;;;;;5122987;28;20098;-36
2021/09/30 09:08:31;;;;;;;4.47;4.07;;;21.20;68.80;;;;;;5122594;28;20035;-37
2021/09/30 09:10:58;;;;;;;4.10;3.70;;;21.20;68.80;;;;;;5105073;28;20027;-36
2021/09/30 09:13:25;;;;;;;4.60;4.20;;;21.20;68.80;;;;;;5104611;28;20335;-36
2021/09/30 09:15:54;;;;;;;4.10;3.70;;;21.20;68.90;;;;;;5123338;28;20038;-36
2021/09/30 09:18:21;;;;;;;4.53;4.13;;;21.20;68.90;;;;;;5105268;28;20043;-37
2021/09/30 09:21:03;;;;;;;3.90;3.53;;;21.20;68.90;;;;;;5123178;28;20048;-37
2021/09/30 09:23:30;;;;;;;4.75;4.35;;;21.20;68.90;;;;;;5104297;28;20705;-36
2021/09/30 09:26:12;;;;;;;4.47;4.00;;;21.20;68.90;;;;;;5104842;28;20032;-36
2021/09/30 09:29:09;;;;;;;4.47;4.07;;;21.10;68.90;;;;;;5123087;28;20024;-36
2021/09/30 09:31:51;;;;;;;4.20;3.80;;;21.20;69.00;;;;;;5122899;28;20740;-37
2021/09/30 09:34:39;;;;;;;4.18;3.88;;;21.10;69.00;;;;;;5121924;28;20100;-36
2021/09/30 09:37:23;;;;;;;4.05;3.75;;;21.10;69.10;;;;;;5122658;28;20134;-36
2021/09/30 09:39:49;;;;;;;4.65;4.22;;;21.10;69.10;;;;;;5122911;28;20047;-36
2021/09/30 09:42:18;;;;;;;5.20;4.10;;;21.10;69.10;;;;;;5104706;28;20813;-36
2021/09/30 09:45:04;;;;;;;4.80;4.40;;;21.10;69.20;;;;;;5124108;28;20639;-36
2021/09/30 09:47:34;;;;;;;4.30;3.90;;;21.10;69.20;;;;;;5127026;28;20031;-36
2021/09/30 09:50:13;;;;;;;4.30;4.00;;;21.10;69.30;;;;;;5108571;28;20026;-36
2021/09/30 09:52:51;;;;;;;4.25;3.88;;;21.10;69.20;;;;;;5126640;28;20604;-36
2021/09/30 09:55:19;;;;;;;4.82;4.30;;;21.00;69.20;;;;;;5126592;28;20040;-36
2021/09/30 09:58:04;;;;;;;4.53;4.13;;;21.10;69.20;;;;;;5126857;28;20024;-36
2021/09/30 10:00:32;;;;;;;4.53;4.13;;;21.00;69.20;;;;;;5126755;28;20031;-36
2021/09/30 10:03:11;;;;;;;4.68;4.28;;;21.00;69.30;;;;;;5126665;28;20028;-36
2021/09/30 10:05:37;;;;;;;4.60;4.20;;;21.00;69.30;;;;;;5126399;28;20039;-36
2021/09/30 10:08:03;;;;;;;5.10;4.45;;;21.00;69.30;;;;;;5124882;28;20035;-36
2021/09/30 10:10:30;;;;;;;4.45;4.05;;;21.00;69.30;;;;;;5107769;28;20500;-36
2021/09/30 10:12:56;;;;;;;3.95;3.65;;;21.00;69.30;;;;;;5126343;28;20023;-36
2021/09/30 10:15:22;;;;;;;4.47;4.10;;;21.00;69.40;;;;;;5108053;28;20480;-36
2021/09/30 10:17:48;;;;;;;6.07;4.00;;;21.00;69.40;;;;;;5126638;28;20050;-36
2021/09/30 10:20:14;;;;;;;4.57;4.18;;;21.00;69.50;;;;;;5126345;28;20023;-36
2021/09/30 10:22:41;;;;;;;4.35;4.05;;;21.00;69.50;;;;;;5126324;28;20023;-36
2021/09/30 10:25:07;;;;;;;4.70;4.30;;;20.90;69.40;;;;;;5125954;28;20056;-36
2021/09/30 10:27:35;;;;;;;4.85;4.45;;;21.00;69.50;;;;;;5126226;28;20016;-37
2021/09/30 10:30:01;;;;;;;4.60;4.20;;;21.00;69.60;;;;;;5090976;28;20488;-36
2021/09/30 10:32:29;;;;;;;4.38;3.97;;;21.00;69.60;;;;;;5107818;28;20028;-36
2021/09/30 10:34:59;;;;;;;4.88;4.43;;;20.90;69.50;;;;;;5125751;28;20032;-36
2021/09/30 10:37:30;;;;;;;5.03;4.30;;;20.90;69.50;;;;;;5125778;28;20085;-36
2021/09/30 10:40:23;;;;;;;5.53;4.50;;;20.90;69.60;;;;;;5125984;28;20024;-36
2021/09/30 10:42:55;;;;;;;5.25;4.38;;;20.90;69.60;;;;;;5125912;28;20039;-36
2021/09/30 10:45:43;;;;;;;4.70;4.30;;;20.90;69.60;;;;;;5125899;28;20512;-36
2021/09/30 10:48:24;;;;;;;5.18;4.65;;;20.90;69.60;;;;;;5125366;28;20051;-36
2021/09/30 10:50:55;;;;;;;4.50;4.05;;;20.90;69.70;;;;;;5125861;28;20027;-36
2021/09/30 10:54:01;;;;;;;4.82;4.32;;;20.90;69.70;;;;;;5125591;28;20054;-36
2021/09/30 10:56:30;;;;;;;4.75;4.35;;;20.90;69.70;;;;;;5125000;28;20565;-37
2021/09/30 10:59:23;;;;;;;5.28;4.53;;;20.90;69.80;;;;;;5125674;28;20031;-36
2021/09/30 11:01:49;;;;;;;4.28;3.88;;;20.90;69.80;;;;;;5094003;28;20035;-36
2021/09/30 11:04:15;;;;;;;4.78;4.38;;;20.80;69.80;;;;;;5122076;28;20032;-37
2021/09/30 11:06:42;;;;;;;4.88;4.38;;;20.80;69.80;;;;;;5125564;28;20052;-36
2021/09/30 11:09:15;;;;;;;4.60;4.20;;;20.80;69.80;;;;;;5125223;28;20095;-36
2021/09/30 11:11:48;;;;;;;4.72;4.30;;;20.80;69.80;;;;;;5125413;28;20032;-36
2021/09/30 11:14:24;;;;;;;4.70;4.30;;;20.80;69.80;;;;;;5125549;28;20388;-36
2021/09/30 11:16:55;;;;;;;4.80;3.75;;;20.80;69.90;;;;;;5125298;28;20051;-36
2021/09/30 11:19:38;;;;;;;4.97;4.47;;;20.80;69.90;;;;;;5125290;28;20069;-37
2021/09/30 11:22:06;;;;;;;5.13;4.68;;;20.80;69.90;;;;;;5125284;28;20043;-36
2021/09/30 11:24:39;;;;;;;4.82;4.43;;;20.80;69.90;;;;;;5124886;28;20047;-36
2021/09/30 11:27:07;;;;;;;5.00;4.55;;;20.80;69.90;;;;;;5106896;28;20024;-36
2021/09/30 11:29:34;;;;;;;4.85;4.43;;;20.80;69.90;;;;;;5125039;28;20035;-36
2021/09/30 11:32:01;;;;;;;5.18;4.53;;;20.70;70.00;;;;;;5106550;28;20028;-36
2021/09/30 11:34:28;;;;;;;4.85;4.45;;;20.70;69.90;;;;;;5125063;28;20190;-37
2021/09/30 11:37:21;;;;;;;4.65;4.22;;;20.70;70.10;;;;;;5124854;28;20024;-36
2021/09/30 11:39:51;;;;;;;4.82;4.32;;;20.70;70.10;;;;;;5121786;28;20568;-36
2021/09/30 11:42:18;;;;;;;5.63;4.82;;;20.70;70.10;;;;;;5124514;28;20028;-36
2021/09/30 11:45:04;;;;;;;5.05;4.25;;;20.70;70.10;;;;;;5124700;28;20038;-36
2021/09/30 11:47:30;;;;;;;5.25;4.75;;;20.70;70.20;;;;;;5124733;28;20031;-36
2021/09/30 11:49:57;;;;;;;4.57;4.18;;;20.70;70.20;;;;;;5124638;28;20156;-37
2021/09/30 11:52:23;;;;;;;4.90;4.40;;;20.70;70.20;;;;;;5124525;28;20027;-37
2021/09/30 11:54:49;;;;;;;4.90;4.25;;;20.70;70.20;;;;;;5124257;28;20034;-36
2021/09/30 11:57:19;;;;;;;5.18;4.68;;;20.70;70.20;;;;;;5124298;28;20028;-36
2021/09/30 11:59:45;;;;;;;5.28;4.78;;;20.70;70.20;;;;;;5124460;28;20035;-36
2021/09/30 12:02:12;;;;;;;5.28;4.68;;;20.70;70.20;;;;;;5106114;28;20024;-37
2021/09/30 12:04:44;;;;;;;5.43;4.82;;;20.70;70.20;;;;;;5123198;28;20035;-36
2021/09/30 12:07:24;;;;;;;5.43;4.93;;;20.70;70.30;;;;;;5123691;28;20031;-36
2021/09/30 12:09:55;;;;;;;5.80;4.78;;;20.70;70.30;;;;;;5106255;28;20484;-36
2021/09/30 12:12:31;;;;;;;5.40;4.70;;;20.70;70.20;;;;;;5124249;28;20030;-36
2021/09/30 12:14:57;;;;;;;5.30;4.80;;;20.60;70.20;;;;;;5124060;28;20023;-36
2021/09/30 12:17:28;;;;;;;5.30;4.80;;;20.60;70.20;;;;;;5105557;28;20030;-37
2021/09/30 12:19:54;;;;;;;6.25;4.15;;;20.60;70.20;;;;;;5123976;28;20612;-36
2021/09/30 12:22:37;;;;;;;5.07;4.57;;;20.60;70.30;;;;;;5123995;28;20036;-36
2021/09/30 12:25:10;;;;;;;4.78;4.38;;;20.60;70.30;;;;;;5123809;28;20114;-36
2021/09/30 12:27:37;;;;;;;4.75;4.35;;;20.60;70.30;;;;;;5123614;28;20035;-36
2021/09/30 12:30:09;;;;;;;5.07;4.57;;;20.60;70.20;;;;;;5105769;28;20038;-36
2021/09/30 12:32:37;;;;;;;5.00;4.15;;;20.60;70.30;;;;;;5123623;28;20028;-40
2021/09/30 12:35:08;;;;;;;5.30;4.80;;;20.60;70.30;;;;;;5123646;28;20487;-37
2021/09/30 12:37:40;;;;;;;4.70;4.30;;;20.60;70.30;;;;;;5123421;28;20030;-36
2021/09/30 12:40:12;;;;;;;5.00;4.50;;;20.60;70.20;;;;;;5123600;28;20758;-36
2021/09/30 12:42:39;;;;;;;5.35;4.85;;;20.60;70.30;;;;;;5123627;28;20028;-36
2021/09/30 12:45:06;;;;;;;5.10;4.60;;;20.60;70.40;;;;;;5123401;28;20550;-36
2021/09/30 12:47:42;;;;;;;4.95;4.45;;;20.60;70.30;;;;;;5123278;28;20046;-36
2021/09/30 12:50:16;;;;;;;5.28;4.78;;;20.50;70.30;;;;;;5123238;28;20027;-37
2021/09/30 12:52:43;;;;;;;4.93;4.50;;;20.50;70.30;;;;;;5123404;28;20032;-36
2021/09/30 12:55:21;;;;;;;5.00;4.50;;;20.50;71.10;;;;;;5123184;28;20045;-36
2021/09/30 12:57:47;;;;;;;5.35;4.85;;;20.50;70.40;;;;;;5123147;28;20126;-36
2021/09/30 13:00:16;;;;;;;4.85;4.45;;;20.50;70.40;;;;;;5123392;28;20020;-36
2021/09/30 13:02:42;;;;;;;5.32;4.53;;;20.50;70.40;;;;;;5122958;28;20062;-36
2021/09/30 13:05:09;;;;;;;4.97;4.55;;;20.50;70.40;;;;;;5123149;28;20040;-36
2021/09/30 13:08:05;;;;;;;5.47;4.97;;;20.50;70.40;;;;;;5122816;28;20028;-36
2021/09/30 13:10:34;;;;;;;5.50;4.90;;;20.50;70.50;;;;;;5106363;28;20032;-36
2021/09/30 13:13:15;;;;;;;5.20;4.70;;;20.50;70.50;;;;;;5123223;28;20545;-36
2021/09/30 13:15:45;;;;;;;4.78;4.38;;;20.50;70.50;;;;;;5123001;28;20030;-36
2021/09/30 13:18:13;;;;;;;4.88;4.47;;;20.50;70.40;;;;;;5122529;28;20086;-36
2021/09/30 13:20:39;;;;;;;4.88;4.47;;;20.50;70.50;;;;;;5122496;28;20020;-36
2021/09/30 13:23:06;;;;;;;5.03;4.63;;;20.50;70.50;;;;;;5122992;28;20036;-36
2021/09/30 13:25:32;;;;;;;4.95;4.55;;;20.50;70.40;;;;;;5120807;28;20147;-36
2021/09/30 13:27:58;;;;;;;4.60;4.28;;;20.50;70.50;;;;;;5121536;28;20027;-36
2021/09/30 13:30:29;;;;;;;4.60;4.20;;;20.50;70.50;;;;;;5102477;28;20058;-36
2021/09/30 13:32:57;;;;;;;5.70;5.10;;;20.50;70.50;;;;;;5102435;28;20473;-36
2021/09/30 13:35:25;;;;;;;5.68;5.00;;;20.50;70.50;;;;;;5122901;28;20047;-36
2021/09/30 13:37:52;;;;;;;5.05;4.55;;;20.50;70.50;;;;;;5104265;28;20031;-36
2021/09/30 13:40:18;;;;;;;4.85;4.35;;;20.50;70.60;;;;;;5122372;28;20033;-36
2021/09/30 13:42:44;;;;;;;5.63;5.10;;;20.50;70.50;;;;;;5122754;28;20023;-36
2021/09/30 13:45:12;;;;;;;5.25;4.60;;;20.50;70.60;;;;;;5104536;28;20035;-36
2021/09/30 13:47:38;;;;;;;;;;;20.50;70.50;;;;;;5104749;28;20027;-36
2021/09/30 13:50:06;;;;;;;6.25;4.35;;;20.50;70.50;;;;;;5122834;28;20012;-36
2021/09/30 13:52:32;;;;;;;4.60;4.15;;;20.50;70.50;;;;;;5122463;28;20032;-36
2021/09/30 13:54:58;;;;;;;4.93;4.38;;;20.50;70.50;;;;;;5122616;28;20062;-37
2021/09/30 13:57:24;;;;;;;5.15;4.10;;;20.50;70.50;;;;;;5122212;28;20095;-36
2021/09/30 13:59:50;;;;;;;5.13;4.63;;;20.50;70.50;;;;;;5104270;28;20032;-36
2021/09/30 14:02:16;;;;;;;4.80;4.40;;;20.50;70.50;;;;;;5122586;28;20157;-36
2021/09/30 14:04:43;;;;;;;5.07;4.63;;;20.50;70.50;;;;;;5122587;28;20204;-36
2021/09/30 14:07:09;;;;;;;5.13;4.50;;;20.50;70.40;;;;;;5122173;28;20035;-36
2021/09/30 14:09:35;;;;;;;4.68;4.28;;;20.50;70.40;;;;;;5122632;28;20023;-37
2021/09/30 14:12:02;;;;;;;5.13;4.63;;;20.50;70.40;;;;;;5122590;28;20023;-36
2021/09/30 14:14:28;;;;;;;4.93;4.43;;;20.50;70.30;;;;;;5114039;28;20051;-36
2021/09/30 14:16:55;;;;;;;4.57;4.15;;;20.50;70.40;;;;;;5102015;28;20247;-36
2021/09/30 14:19:25;;;;;;;4.70;4.22;;;20.60;70.40;;;;;;5101912;28;20162;-36
2021/09/30 14:21:51;;;;;;;5.30;4.75;;;20.60;70.40;;;;;;5102079;28;20032;-36
2021/09/30 14:24:17;;;;;;;4.60;4.20;;;20.60;70.40;;;;;;5101542;28;20044;-37
2021/09/30 14:26:43;;;;;;;4.90;4.50;;;20.60;70.40;;;;;;5102056;28;20047;-36
2021/09/30 14:29:10;;;;;;;4.88;4.47;;;20.60;70.40;;;;;;5102014;28;20036;-37
2021/09/30 14:31:36;;;;;;;4.45;4.05;;;20.60;70.40;;;;;;5104736;28;20052;-36
2021/09/30 14:34:02;;;;;;;4.53;4.13;;;20.60;70.40;;;;;;5105561;28;20031;-36
2021/09/30 14:36:28;;;;;;;4.75;4.28;;;20.60;70.40;;;;;;5105810;28;20082;-37
2021/09/30 14:38:55;;;;;;;4.82;4.35;;;20.60;70.40;;;;;;5105620;28;20066;-36
2021/09/30 14:41:22;;;;;;;4.90;4.50;;;20.60;70.40;;;;;;5115192;28;20031;-36
2021/09/30 14:43:48;;;;;;;4.43;4.03;;;20.60;70.50;;;;;;5125614;28;20040;-36
2021/09/30 14:46:17;;;;;;;4.43;4.10;;;20.60;70.60;;;;;;5125939;28;20055;-36
2021/09/30 14:48:43;;;;;;;4.57;4.18;;;20.60;70.50;;;;;;5125828;28;20027;-36
2021/09/30 14:51:11;;;;;;;5.18;4.57;;;20.60;70.50;;;;;;5125518;28;20034;-36
2021/09/30 14:53:38;;;;;;;4.63;4.22;;;20.60;70.60;;;;;;5125200;28;20055;-36
2021/09/30 14:56:04;;;;;;;4.70;4.30;;;20.70;70.60;;;;;;5125418;28;20134;-36
2021/09/30 14:58:31;;;;;;;3.90;3.60;;;20.70;70.70;;;;;;5107222;28;20030;-36
2021/09/30 15:00:57;;;;;;;4.27;3.90;;;20.70;70.80;;;;;;5125903;28;20034;-36
2021/09/30 15:03:23;;;;;;;5.05;4.65;;;20.70;70.90;;;;;;5125653;28;20594;-36
2021/09/30 15:05:49;;;;;;;4.40;4.00;;;20.70;70.90;;;;;;5121301;28;20042;-36
2021/09/30 15:08:16;;;;;;;4.20;3.90;;;20.70;71.00;;;;;;5125482;28;20028;-36
2021/09/30 15:10:42;;;;;;;4.55;4.15;;;20.70;71.10;;;;;;5125188;28;20031;-36
2021/09/30 15:13:08;;;;;;;4.38;3.97;;;20.70;71.10;;;;;;5125368;28;20685;-36
2021/09/30 15:15:35;;;;;;;4.50;4.10;;;20.70;71.20;;;;;;5125139;28;20028;-36
2021/09/30 15:18:05;;;;;;;4.70;4.30;;;20.70;71.30;;;;;;5107102;28;20038;-36
2021/09/30 15:23:13;;;;;;;4.80;4.40;;;20.70;71.30;;;;;;5107845;28;20031;-36
2021/09/30 15:25:40;;;;;;;4.22;3.83;;;20.80;71.50;;;;;;5124739;28;20046;-36
2021/09/30 15:28:08;;;;;;;4.53;4.13;;;20.80;71.60;;;;;;5124933;28;20051;-37
2021/09/30 15:30:33;;;;;;;;;;;20.80;71.70;;;;;;5125485;28;20024;-36
2021/09/30 15:33:02;;;;;;;4.70;3.97;;;20.90;71.90;;;;;;5125038;28;19919;-36
2021/09/30 15:35:28;;;;;;;4.65;4.25;;;20.90;71.90;;;;;;5106786;28;20089;-36